sensor_id;sensor_type;location;lat;lon;timestamp;P1;durP1;ratioP1;P2;durP2;ratioP2
287;SDS011;128;48.770;9.198;2023-12-29T00:02:05;3.50;;;2.17;;
287;SDS011;128;48.770;9.198;2023-12-29T00:04:31;4.20;;;2.50;;
287;SDS011;128;48.770;9.198;2023-12-29T00:06:57;2.53;;;1.83;;
287;SDS011;128;48.770;9.198;2023-12-29T00:09:23;4.07;;;2.70;;
287;SDS011;128;48.770;9.198;2023-12-29T00:11:49;6.80;;;3.40;;
287;SDS011;128;48.770;9.198;2023-12-29T00:14:15;4.97;;;2.13;;
287;SDS011;128;48.770;9.198;2023-12-29T00:16:41;3.73;;;2.23;;
287;SDS011;128;48.770;9.198;2023-12-29T00:19:09;6.10;;;2.70;;
287;SDS011;128;48.770;9.198;2023-12-29T00:21:35;7.17;;;2.60;;
287;SDS011;128;48.770;9.198;2023-12-29T00:24:01;4.83;;;2.70;;
287;SDS011;128;48.770;9.198;2023-12-29T00:26:27;6.47;;;3.23;;
287;SDS011;128;48.770;9.198;2023-12-29T00:28:54;3.50;;;2.20;;
287;SDS011;128;48.770;9.198;2023-12-29T00:31:20;3.90;;;2.63;;
287;SDS011;128;48.770;9.198;2023-12-29T00:33:46;5.50;;;2.60;;
287;SDS011;128;48.770;9.198;2023-12-29T00:36:15;4.20;;;2.97;;
287;SDS011;128;48.770;9.198;2023-12-29T00:38:41;4.20;;;2.53;;
287;SDS011;128;48.770;9.198;2023-12-29T00:41:07;4.07;;;2.40;;
287;SDS011;128;48.770;9.198;2023-12-29T00:43:33;5.40;;;2.67;;
287;SDS011;128;48.770;9.198;2023-12-29T00:46:01;6.57;;;2.10;;
287;SDS011;128;48.770;9.198;2023-12-29T00:48:26;4.50;;;2.43;;
287;SDS011;128;48.770;9.198;2023-12-29T00:50:52;6.00;;;2.60;;
287;SDS011;128;48.770;9.198;2023-12-29T00:53:18;8.13;;;2.90;;
287;SDS011;128;48.770;9.198;2023-12-29T00:55:44;5.13;;;2.27;;
287;SDS011;128;48.770;9.198;2023-12-29T00:58:10;4.53;;;2.73;;
287;SDS011;128;48.770;9.198;2023-12-29T01:00:36;4.30;;;2.57;;
287;SDS011;128;48.770;9.198;2023-12-29T01:03:02;5.87;;;2.70;;
287;SDS011;128;48.770;9.198;2023-12-29T01:05:28;8.33;;;2.57;;
287;SDS011;128;48.770;9.198;2023-12-29T01:07:54;3.93;;;2.87;;
287;SDS011;128;48.770;9.198;2023-12-29T01:10:20;4.17;;;2.40;;
287;SDS011;128;48.770;9.198;2023-12-29T01:12:46;4.93;;;2.87;;
287;SDS011;128;48.770;9.198;2023-12-29T01:15:12;3.70;;;2.43;;
287;SDS011;128;48.770;9.198;2023-12-29T01:17:39;3.70;;;2.33;;
287;SDS011;128;48.770;9.198;2023-12-29T01:20:05;5.47;;;2.43;;
287;SDS011;128;48.770;9.198;2023-12-29T01:22:31;8.70;;;2.93;;
287;SDS011;128;48.770;9.198;2023-12-29T01:25:00;4.13;;;2.43;;
287;SDS011;128;48.770;9.198;2023-12-29T01:27:26;4.97;;;2.30;;
287;SDS011;128;48.770;9.198;2023-12-29T01:29:52;4.80;;;3.37;;
287;SDS011;128;48.770;9.198;2023-12-29T01:32:19;3.60;;;2.57;;
287;SDS011;128;48.770;9.198;2023-12-29T01:34:45;3.80;;;2.80;;
287;SDS011;128;48.770;9.198;2023-12-29T01:37:10;15.07;;;3.47;;
287;SDS011;128;48.770;9.198;2023-12-29T01:39:36;4.83;;;2.87;;
287;SDS011;128;48.770;9.198;2023-12-29T01:42:02;8.63;;;2.70;;
287;SDS011;128;48.770;9.198;2023-12-29T01:44:28;6.07;;;3.20;;
287;SDS011;128;48.770;9.198;2023-12-29T01:46:55;6.23;;;2.87;;
287;SDS011;128;48.770;9.198;2023-12-29T01:49:22;4.20;;;2.77;;
287;SDS011;128;48.770;9.198;2023-12-29T01:51:52;6.23;;;3.60;;
287;SDS011;128;48.770;9.198;2023-12-29T01:54:19;5.17;;;3.20;;
287;SDS011;128;48.770;9.198;2023-12-29T01:56:46;6.73;;;3.10;;
287;SDS011;128;48.770;9.198;2023-12-29T01:59:12;5.63;;;2.80;;
287;SDS011;128;48.770;9.198;2023-12-29T02:01:38;4.47;;;2.90;;
287;SDS011;128;48.770;9.198;2023-12-29T02:04:07;4.67;;;2.90;;
287;SDS011;128;48.770;9.198;2023-12-29T02:06:33;4.30;;;2.80;;
287;SDS011;128;48.770;9.198;2023-12-29T02:09:01;7.77;;;3.60;;
287;SDS011;128;48.770;9.198;2023-12-29T02:11:28;5.20;;;3.30;;
287;SDS011;128;48.770;9.198;2023-12-29T02:13:54;5.73;;;3.00;;
287;SDS011;128;48.770;9.198;2023-12-29T02:16:32;8.50;;;3.50;;
287;SDS011;128;48.770;9.198;2023-12-29T02:18:59;6.27;;;3.87;;
287;SDS011;128;48.770;9.198;2023-12-29T02:21:27;8.13;;;4.00;;
287;SDS011;128;48.770;9.198;2023-12-29T02:23:53;5.23;;;3.07;;
287;SDS011;128;48.770;9.198;2023-12-29T02:26:19;8.40;;;3.40;;
287;SDS011;128;48.770;9.198;2023-12-29T02:28:50;4.10;;;2.97;;
287;SDS011;128;48.770;9.198;2023-12-29T02:31:19;4.40;;;2.73;;
287;SDS011;128;48.770;9.198;2023-12-29T02:33:46;4.50;;;3.10;;
287;SDS011;128;48.770;9.198;2023-12-29T02:36:13;5.23;;;3.50;;
287;SDS011;128;48.770;9.198;2023-12-29T02:38:39;7.77;;;2.90;;
287;SDS011;128;48.770;9.198;2023-12-29T02:41:05;5.93;;;2.83;;
287;SDS011;128;48.770;9.198;2023-12-29T02:43:31;5.60;;;3.00;;
287;SDS011;128;48.770;9.198;2023-12-29T02:45:58;10.53;;;3.20;;
287;SDS011;128;48.770;9.198;2023-12-29T02:48:24;5.07;;;2.97;;
287;SDS011;128;48.770;9.198;2023-12-29T02:50:49;4.07;;;2.90;;
287;SDS011;128;48.770;9.198;2023-12-29T02:53:15;5.57;;;3.30;;
287;SDS011;128;48.770;9.198;2023-12-29T02:55:41;5.50;;;3.10;;
287;SDS011;128;48.770;9.198;2023-12-29T02:58:08;4.27;;;2.80;;
287;SDS011;128;48.770;9.198;2023-12-29T03:00:34;6.80;;;3.23;;
287;SDS011;128;48.770;9.198;2023-12-29T03:03:00;5.90;;;3.60;;
287;SDS011;128;48.770;9.198;2023-12-29T03:05:26;8.40;;;2.97;;
287;SDS011;128;48.770;9.198;2023-12-29T03:07:52;5.43;;;3.37;;
287;SDS011;128;48.770;9.198;2023-12-29T03:10:18;7.50;;;3.40;;
287;SDS011;128;48.770;9.198;2023-12-29T03:12:44;6.50;;;3.70;;
287;SDS011;128;48.770;9.198;2023-12-29T03:15:10;7.40;;;3.83;;
287;SDS011;128;48.770;9.198;2023-12-29T03:17:36;6.57;;;2.90;;
287;SDS011;128;48.770;9.198;2023-12-29T03:20:02;5.33;;;3.23;;
287;SDS011;128;48.770;9.198;2023-12-29T03:22:29;5.07;;;3.67;;
287;SDS011;128;48.770;9.198;2023-12-29T03:24:55;4.30;;;2.70;;
287;SDS011;128;48.770;9.198;2023-12-29T03:27:21;6.13;;;3.57;;
287;SDS011;128;48.770;9.198;2023-12-29T03:29:47;4.90;;;3.00;;
287;SDS011;128;48.770;9.198;2023-12-29T03:32:13;5.83;;;3.90;;
287;SDS011;128;48.770;9.198;2023-12-29T03:34:40;7.50;;;3.53;;
287;SDS011;128;48.770;9.198;2023-12-29T03:37:06;9.53;;;3.43;;
287;SDS011;128;48.770;9.198;2023-12-29T03:39:32;9.07;;;4.37;;
287;SDS011;128;48.770;9.198;2023-12-29T03:42:00;8.10;;;3.83;;
287;SDS011;128;48.770;9.198;2023-12-29T03:44:26;5.20;;;3.07;;
287;SDS011;128;48.770;9.198;2023-12-29T03:46:52;4.80;;;3.03;;
287;SDS011;128;48.770;9.198;2023-12-29T03:49:18;4.47;;;3.13;;
287;SDS011;128;48.770;9.198;2023-12-29T03:51:44;4.73;;;3.00;;
287;SDS011;128;48.770;9.198;2023-12-29T03:54:11;4.70;;;2.80;;
287;SDS011;128;48.770;9.198;2023-12-29T03:56:37;5.60;;;3.00;;
287;SDS011;128;48.770;9.198;2023-12-29T03:59:03;6.97;;;3.20;;
287;SDS011;128;48.770;9.198;2023-12-29T04:01:28;4.70;;;2.53;;
287;SDS011;128;48.770;9.198;2023-12-29T04:03:54;3.73;;;2.80;;
287;SDS011;128;48.770;9.198;2023-12-29T04:06:20;4.23;;;2.93;;
287;SDS011;128;48.770;9.198;2023-12-29T04:08:46;4.80;;;3.10;;
287;SDS011;128;48.770;9.198;2023-12-29T04:11:12;5.50;;;2.97;;
287;SDS011;128;48.770;9.198;2023-12-29T04:13:38;4.07;;;2.80;;
287;SDS011;128;48.770;9.198;2023-12-29T04:16:04;7.00;;;2.90;;
287;SDS011;128;48.770;9.198;2023-12-29T04:18:30;5.27;;;2.73;;
287;SDS011;128;48.770;9.198;2023-12-29T04:20:56;6.10;;;2.97;;
287;SDS011;128;48.770;9.198;2023-12-29T04:23:22;4.70;;;2.70;;
287;SDS011;128;48.770;9.198;2023-12-29T04:25:48;5.07;;;2.70;;
287;SDS011;128;48.770;9.198;2023-12-29T04:28:14;4.60;;;3.03;;
287;SDS011;128;48.770;9.198;2023-12-29T04:30:40;7.60;;;2.30;;
287;SDS011;128;48.770;9.198;2023-12-29T04:33:06;3.63;;;2.63;;
287;SDS011;128;48.770;9.198;2023-12-29T04:35:31;5.43;;;2.47;;
287;SDS011;128;48.770;9.198;2023-12-29T04:37:57;4.37;;;2.90;;
287;SDS011;128;48.770;9.198;2023-12-29T04:40:23;4.40;;;3.00;;
287;SDS011;128;48.770;9.198;2023-12-29T04:42:49;10.10;;;2.73;;
287;SDS011;128;48.770;9.198;2023-12-29T04:45:15;7.40;;;3.00;;
287;SDS011;128;48.770;9.198;2023-12-29T04:47:41;3.90;;;2.87;;
287;SDS011;128;48.770;9.198;2023-12-29T04:50:07;5.20;;;2.67;;
287;SDS011;128;48.770;9.198;2023-12-29T04:52:33;4.27;;;2.30;;
287;SDS011;128;48.770;9.198;2023-12-29T04:54:59;3.47;;;2.63;;
287;SDS011;128;48.770;9.198;2023-12-29T04:57:25;4.40;;;3.07;;
287;SDS011;128;48.770;9.198;2023-12-29T04:59:51;6.27;;;3.07;;
287;SDS011;128;48.770;9.198;2023-12-29T05:02:17;6.50;;;2.70;;
287;SDS011;128;48.770;9.198;2023-12-29T05:04:44;4.40;;;2.73;;
287;SDS011;128;48.770;9.198;2023-12-29T05:07:11;3.77;;;2.43;;
287;SDS011;128;48.770;9.198;2023-12-29T05:09:37;4.33;;;2.70;;
287;SDS011;128;48.770;9.198;2023-12-29T05:12:03;4.63;;;3.03;;
287;SDS011;128;48.770;9.198;2023-12-29T05:14:29;3.83;;;2.40;;
287;SDS011;128;48.770;9.198;2023-12-29T05:16:55;4.43;;;2.70;;
287;SDS011;128;48.770;9.198;2023-12-29T05:19:20;7.70;;;3.00;;
287;SDS011;128;48.770;9.198;2023-12-29T05:21:47;7.63;;;3.00;;
287;SDS011;128;48.770;9.198;2023-12-29T05:24:16;6.37;;;3.20;;
287;SDS011;128;48.770;9.198;2023-12-29T05:26:41;4.70;;;2.67;;
287;SDS011;128;48.770;9.198;2023-12-29T05:29:07;3.27;;;2.07;;
287;SDS011;128;48.770;9.198;2023-12-29T05:31:33;7.27;;;3.07;;
287;SDS011;128;48.770;9.198;2023-12-29T05:33:59;3.37;;;2.70;;
287;SDS011;128;48.770;9.198;2023-12-29T05:36:25;5.23;;;2.87;;
287;SDS011;128;48.770;9.198;2023-12-29T05:38:51;9.10;;;3.40;;
287;SDS011;128;48.770;9.198;2023-12-29T05:41:18;5.87;;;3.30;;
287;SDS011;128;48.770;9.198;2023-12-29T05:43:44;3.93;;;2.53;;
287;SDS011;128;48.770;9.198;2023-12-29T05:46:10;5.00;;;3.40;;
287;SDS011;128;48.770;9.198;2023-12-29T05:48:36;7.93;;;3.43;;
287;SDS011;128;48.770;9.198;2023-12-29T05:51:07;5.20;;;3.30;;
287;SDS011;128;48.770;9.198;2023-12-29T05:53:34;4.97;;;3.50;;
287;SDS011;128;48.770;9.198;2023-12-29T05:55:59;6.70;;;3.40;;
287;SDS011;128;48.770;9.198;2023-12-29T05:58:25;4.33;;;3.03;;
287;SDS011;128;48.770;9.198;2023-12-29T06:00:51;5.40;;;3.47;;
287;SDS011;128;48.770;9.198;2023-12-29T06:03:17;4.10;;;2.43;;
287;SDS011;128;48.770;9.198;2023-12-29T06:05:43;7.67;;;3.33;;
287;SDS011;128;48.770;9.198;2023-12-29T06:08:09;4.13;;;3.23;;
287;SDS011;128;48.770;9.198;2023-12-29T06:10:35;7.00;;;3.20;;
287;SDS011;128;48.770;9.198;2023-12-29T06:13:01;4.43;;;2.73;;
287;SDS011;128;48.770;9.198;2023-12-29T06:15:28;4.57;;;3.07;;
287;SDS011;128;48.770;9.198;2023-12-29T06:17:54;4.93;;;2.90;;
287;SDS011;128;48.770;9.198;2023-12-29T06:20:20;8.10;;;3.00;;
287;SDS011;128;48.770;9.198;2023-12-29T06:22:46;3.93;;;2.70;;
287;SDS011;128;48.770;9.198;2023-12-29T06:25:12;4.53;;;2.97;;
287;SDS011;128;48.770;9.198;2023-12-29T06:27:38;4.30;;;2.67;;
287;SDS011;128;48.770;9.198;2023-12-29T06:30:06;6.70;;;3.53;;
287;SDS011;128;48.770;9.198;2023-12-29T06:32:32;5.00;;;3.03;;
287;SDS011;128;48.770;9.198;2023-12-29T06:34:58;4.47;;;2.93;;
287;SDS011;128;48.770;9.198;2023-12-29T06:37:24;3.30;;;2.63;;
287;SDS011;128;48.770;9.198;2023-12-29T06:39:50;7.77;;;3.13;;
287;SDS011;128;48.770;9.198;2023-12-29T06:42:16;4.27;;;2.70;;
287;SDS011;128;48.770;9.198;2023-12-29T06:44:42;5.67;;;3.10;;
287;SDS011;128;48.770;9.198;2023-12-29T06:47:07;4.87;;;3.07;;
287;SDS011;128;48.770;9.198;2023-12-29T06:49:34;4.87;;;2.80;;
287;SDS011;128;48.770;9.198;2023-12-29T06:52:00;5.77;;;3.27;;
287;SDS011;128;48.770;9.198;2023-12-29T06:54:26;2.97;;;2.27;;
287;SDS011;128;48.770;9.198;2023-12-29T06:56:52;3.70;;;2.40;;
287;SDS011;128;48.770;9.198;2023-12-29T06:59:18;4.43;;;2.87;;
287;SDS011;128;48.770;9.198;2023-12-29T07:01:45;5.00;;;2.83;;
287;SDS011;128;48.770;9.198;2023-12-29T07:04:10;4.70;;;3.20;;
287;SDS011;128;48.770;9.198;2023-12-29T07:06:37;9.70;;;2.40;;
287;SDS011;128;48.770;9.198;2023-12-29T07:09:03;5.37;;;3.40;;
287;SDS011;128;48.770;9.198;2023-12-29T07:11:29;4.83;;;2.93;;
287;SDS011;128;48.770;9.198;2023-12-29T07:13:55;5.53;;;3.10;;
287;SDS011;128;48.770;9.198;2023-12-29T07:16:21;4.90;;;2.87;;
287;SDS011;128;48.770;9.198;2023-12-29T07:18:47;8.20;;;2.90;;
287;SDS011;128;48.770;9.198;2023-12-29T07:21:14;5.20;;;3.10;;
287;SDS011;128;48.770;9.198;2023-12-29T07:23:41;4.53;;;3.07;;
287;SDS011;128;48.770;9.198;2023-12-29T07:26:07;4.63;;;2.70;;
287;SDS011;128;48.770;9.198;2023-12-29T07:28:33;4.90;;;2.20;;
287;SDS011;128;48.770;9.198;2023-12-29T07:31:00;6.90;;;3.07;;
287;SDS011;128;48.770;9.198;2023-12-29T07:33:26;3.73;;;2.47;;
287;SDS011;128;48.770;9.198;2023-12-29T07:35:52;3.47;;;2.33;;
287;SDS011;128;48.770;9.198;2023-12-29T07:38:18;3.80;;;2.07;;
287;SDS011;128;48.770;9.198;2023-12-29T07:40:44;3.87;;;2.70;;
287;SDS011;128;48.770;9.198;2023-12-29T07:43:10;6.80;;;2.80;;
287;SDS011;128;48.770;9.198;2023-12-29T07:45:36;7.33;;;2.87;;
287;SDS011;128;48.770;9.198;2023-12-29T07:48:02;3.70;;;2.40;;
287;SDS011;128;48.770;9.198;2023-12-29T07:50:28;3.50;;;2.13;;
287;SDS011;128;48.770;9.198;2023-12-29T07:52:54;4.63;;;2.33;;
287;SDS011;128;48.770;9.198;2023-12-29T07:55:20;4.20;;;2.73;;
287;SDS011;128;48.770;9.198;2023-12-29T07:57:46;3.10;;;2.47;;
287;SDS011;128;48.770;9.198;2023-12-29T08:00:16;4.70;;;2.50;;
287;SDS011;128;48.770;9.198;2023-12-29T08:02:42;4.97;;;2.30;;
287;SDS011;128;48.770;9.198;2023-12-29T08:05:09;4.67;;;2.20;;
287;SDS011;128;48.770;9.198;2023-12-29T08:07:36;3.77;;;2.57;;
287;SDS011;128;48.770;9.198;2023-12-29T08:10:05;3.80;;;2.50;;
287;SDS011;128;48.770;9.198;2023-12-29T08:12:31;6.90;;;2.33;;
287;SDS011;128;48.770;9.198;2023-12-29T08:15:01;6.37;;;2.97;;
287;SDS011;128;48.770;9.198;2023-12-29T08:17:27;2.97;;;2.03;;
287;SDS011;128;48.770;9.198;2023-12-29T08:19:54;6.23;;;2.47;;
287;SDS011;128;48.770;9.198;2023-12-29T08:22:20;5.50;;;2.97;;
287;SDS011;128;48.770;9.198;2023-12-29T08:24:46;7.10;;;2.17;;
287;SDS011;128;48.770;9.198;2023-12-29T08:27:12;3.83;;;2.77;;
287;SDS011;128;48.770;9.198;2023-12-29T08:29:38;5.33;;;2.77;;
287;SDS011;128;48.770;9.198;2023-12-29T08:32:04;3.87;;;2.63;;
287;SDS011;128;48.770;9.198;2023-12-29T08:34:30;9.73;;;3.60;;
287;SDS011;128;48.770;9.198;2023-12-29T08:36:56;12.97;;;3.50;;
287;SDS011;128;48.770;9.198;2023-12-29T08:39:23;3.80;;;3.10;;
287;SDS011;128;48.770;9.198;2023-12-29T08:41:49;3.77;;;2.30;;
287;SDS011;128;48.770;9.198;2023-12-29T08:44:15;4.13;;;2.83;;
287;SDS011;128;48.770;9.198;2023-12-29T08:46:41;4.13;;;2.70;;
287;SDS011;128;48.770;9.198;2023-12-29T08:49:08;4.97;;;2.77;;
287;SDS011;128;48.770;9.198;2023-12-29T08:51:33;7.03;;;3.20;;
287;SDS011;128;48.770;9.198;2023-12-29T08:53:59;6.43;;;2.67;;
287;SDS011;128;48.770;9.198;2023-12-29T08:56:25;5.03;;;3.07;;
287;SDS011;128;48.770;9.198;2023-12-29T08:58:53;5.03;;;3.27;;
287;SDS011;128;48.770;9.198;2023-12-29T09:01:19;4.30;;;2.47;;
287;SDS011;128;48.770;9.198;2023-12-29T09:03:45;5.60;;;3.00;;
287;SDS011;128;48.770;9.198;2023-12-29T09:06:11;5.80;;;2.60;;
287;SDS011;128;48.770;9.198;2023-12-29T09:08:36;3.97;;;2.67;;
287;SDS011;128;48.770;9.198;2023-12-29T09:11:03;6.00;;;2.50;;
287;SDS011;128;48.770;9.198;2023-12-29T09:13:29;3.10;;;2.23;;
287;SDS011;128;48.770;9.198;2023-12-29T09:15:56;9.27;;;2.33;;
287;SDS011;128;48.770;9.198;2023-12-29T09:18:22;3.70;;;2.20;;
287;SDS011;128;48.770;9.198;2023-12-29T09:20:48;6.10;;;2.80;;
287;SDS011;128;48.770;9.198;2023-12-29T09:23:14;4.93;;;2.97;;
287;SDS011;128;48.770;9.198;2023-12-29T09:25:40;3.60;;;2.40;;
287;SDS011;128;48.770;9.198;2023-12-29T09:28:06;2.50;;;1.97;;
287;SDS011;128;48.770;9.198;2023-12-29T09:30:32;3.33;;;1.93;;
287;SDS011;128;48.770;9.198;2023-12-29T09:32:58;7.20;;;2.47;;
287;SDS011;128;48.770;9.198;2023-12-29T09:35:24;2.67;;;1.67;;
287;SDS011;128;48.770;9.198;2023-12-29T09:37:50;2.33;;;1.50;;
287;SDS011;128;48.770;9.198;2023-12-29T09:40:16;3.10;;;1.80;;
287;SDS011;128;48.770;9.198;2023-12-29T09:42:42;4.00;;;2.17;;
287;SDS011;128;48.770;9.198;2023-12-29T09:45:12;7.03;;;2.10;;
287;SDS011;128;48.770;9.198;2023-12-29T09:47:38;4.27;;;1.90;;
287;SDS011;128;48.770;9.198;2023-12-29T09:50:05;4.53;;;2.10;;
287;SDS011;128;48.770;9.198;2023-12-29T09:52:31;4.30;;;1.43;;
287;SDS011;128;48.770;9.198;2023-12-29T09:54:57;5.03;;;2.30;;
287;SDS011;128;48.770;9.198;2023-12-29T09:57:23;4.00;;;1.70;;
287;SDS011;128;48.770;9.198;2023-12-29T09:59:50;4.73;;;1.87;;
287;SDS011;128;48.770;9.198;2023-12-29T10:02:16;3.40;;;1.83;;
287;SDS011;128;48.770;9.198;2023-12-29T10:04:42;3.97;;;2.57;;
287;SDS011;128;48.770;9.198;2023-12-29T10:07:10;2.10;;;1.83;;
287;SDS011;128;48.770;9.198;2023-12-29T10:09:37;2.50;;;1.70;;
287;SDS011;128;48.770;9.198;2023-12-29T10:12:05;3.70;;;1.90;;
287;SDS011;128;48.770;9.198;2023-12-29T10:17:27;2.53;;;1.43;;
287;SDS011;128;48.770;9.198;2023-12-29T10:20:15;1.70;;;1.23;;
287;SDS011;128;48.770;9.198;2023-12-29T10:22:48;2.17;;;1.67;;
287;SDS011;128;48.770;9.198;2023-12-29T10:25:16;3.30;;;1.77;;
287;SDS011;128;48.770;9.198;2023-12-29T10:27:42;4.27;;;1.80;;
287;SDS011;128;48.770;9.198;2023-12-29T10:30:09;2.30;;;1.50;;
287;SDS011;128;48.770;9.198;2023-12-29T10:32:35;3.00;;;1.50;;
287;SDS011;128;48.770;9.198;2023-12-29T10:35:10;3.00;;;1.60;;
287;SDS011;128;48.770;9.198;2023-12-29T10:37:37;2.80;;;1.40;;
287;SDS011;128;48.770;9.198;2023-12-29T10:40:04;5.80;;;1.40;;
287;SDS011;128;48.770;9.198;2023-12-29T10:42:30;3.53;;;1.37;;
287;SDS011;128;48.770;9.198;2023-12-29T10:45:09;2.47;;;1.67;;
287;SDS011;128;48.770;9.198;2023-12-29T10:47:35;3.77;;;1.50;;
287;SDS011;128;48.770;9.198;2023-12-29T10:50:02;1.73;;;1.00;;
287;SDS011;128;48.770;9.198;2023-12-29T10:52:29;2.40;;;1.30;;
287;SDS011;128;48.770;9.198;2023-12-29T10:55:05;2.60;;;1.70;;
287;SDS011;128;48.770;9.198;2023-12-29T10:57:31;1.73;;;1.40;;
287;SDS011;128;48.770;9.198;2023-12-29T10:59:57;2.13;;;1.37;;
287;SDS011;128;48.770;9.198;2023-12-29T11:02:25;2.10;;;1.27;;
287;SDS011;128;48.770;9.198;2023-12-29T11:04:51;1.77;;;1.27;;
287;SDS011;128;48.770;9.198;2023-12-29T11:10:00;2.60;;;1.57;;
287;SDS011;128;48.770;9.198;2023-12-29T11:12:27;3.13;;;1.77;;
287;SDS011;128;48.770;9.198;2023-12-29T11:14:53;2.50;;;1.27;;
287;SDS011;128;48.770;9.198;2023-12-29T11:17:19;2.03;;;1.30;;
287;SDS011;128;48.770;9.198;2023-12-29T11:19:46;1.87;;;1.40;;
287;SDS011;128;48.770;9.198;2023-12-29T11:22:13;3.27;;;1.83;;
287;SDS011;128;48.770;9.198;2023-12-29T11:24:40;11.90;;;1.50;;
287;SDS011;128;48.770;9.198;2023-12-29T11:27:06;1.53;;;1.40;;
287;SDS011;128;48.770;9.198;2023-12-29T11:29:32;1.93;;;1.10;;
287;SDS011;128;48.770;9.198;2023-12-29T11:31:58;1.47;;;1.20;;
287;SDS011;128;48.770;9.198;2023-12-29T11:34:30;1.63;;;1.40;;
287;SDS011;128;48.770;9.198;2023-12-29T11:37:02;2.67;;;1.13;;
287;SDS011;128;48.770;9.198;2023-12-29T11:39:43;2.43;;;1.60;;
287;SDS011;128;48.770;9.198;2023-12-29T11:42:14;3.67;;;1.23;;
287;SDS011;128;48.770;9.198;2023-12-29T11:44:43;1.90;;;1.27;;
287;SDS011;128;48.770;9.198;2023-12-29T11:47:34;2.13;;;1.30;;
287;SDS011;128;48.770;9.198;2023-12-29T11:50:00;2.63;;;1.30;;
287;SDS011;128;48.770;9.198;2023-12-29T11:52:36;1.93;;;1.57;;
287;SDS011;128;48.770;9.198;2023-12-29T11:55:08;1.87;;;1.00;;
287;SDS011;128;48.770;9.198;2023-12-29T11:57:34;1.90;;;1.23;;
287;SDS011;128;48.770;9.198;2023-12-29T12:00:01;3.23;;;1.50;;
287;SDS011;128;48.770;9.198;2023-12-29T12:02:30;4.47;;;1.50;;
287;SDS011;128;48.770;9.198;2023-12-29T12:04:56;3.90;;;1.43;;
287;SDS011;128;48.770;9.198;2023-12-29T12:09:48;1.73;;;1.20;;
287;SDS011;128;48.770;9.198;2023-12-29T12:12:15;2.80;;;1.10;;
287;SDS011;128;48.770;9.198;2023-12-29T12:15:00;2.57;;;1.50;;
287;SDS011;128;48.770;9.198;2023-12-29T12:17:28;2.40;;;1.27;;
287;SDS011;128;48.770;9.198;2023-12-29T12:19:57;4.07;;;1.70;;
287;SDS011;128;48.770;9.198;2023-12-29T12:22:23;2.77;;;1.50;;
287;SDS011;128;48.770;9.198;2023-12-29T12:24:55;1.27;;;1.00;;
287;SDS011;128;48.770;9.198;2023-12-29T12:27:21;1.60;;;1.20;;
287;SDS011;128;48.770;9.198;2023-12-29T12:29:51;3.40;;;1.50;;
287;SDS011;128;48.770;9.198;2023-12-29T12:32:20;5.40;;;2.30;;
287;SDS011;128;48.770;9.198;2023-12-29T12:34:45;2.63;;;1.40;;
287;SDS011;128;48.770;9.198;2023-12-29T12:37:12;1.83;;;1.23;;
287;SDS011;128;48.770;9.198;2023-12-29T12:39:38;2.23;;;1.30;;
287;SDS011;128;48.770;9.198;2023-12-29T12:42:04;3.30;;;1.20;;
287;SDS011;128;48.770;9.198;2023-12-29T12:44:30;1.73;;;1.27;;
287;SDS011;128;48.770;9.198;2023-12-29T12:46:57;1.77;;;1.30;;
287;SDS011;128;48.770;9.198;2023-12-29T12:49:24;4.97;;;1.80;;
287;SDS011;128;48.770;9.198;2023-12-29T12:51:50;1.77;;;1.27;;
287;SDS011;128;48.770;9.198;2023-12-29T12:54:17;2.07;;;1.53;;
287;SDS011;128;48.770;9.198;2023-12-29T12:56:44;5.70;;;1.33;;
287;SDS011;128;48.770;9.198;2023-12-29T12:59:10;4.53;;;2.33;;
287;SDS011;128;48.770;9.198;2023-12-29T13:01:37;2.20;;;1.27;;
287;SDS011;128;48.770;9.198;2023-12-29T13:04:03;3.30;;;1.37;;
287;SDS011;128;48.770;9.198;2023-12-29T13:06:32;3.13;;;1.67;;
287;SDS011;128;48.770;9.198;2023-12-29T13:08:59;2.30;;;1.17;;
287;SDS011;128;48.770;9.198;2023-12-29T13:11:27;4.77;;;1.80;;
287;SDS011;128;48.770;9.198;2023-12-29T13:13:53;2.83;;;1.40;;
287;SDS011;128;48.770;9.198;2023-12-29T13:16:28;1.60;;;1.20;;
287;SDS011;128;48.770;9.198;2023-12-29T13:18:54;1.80;;;1.13;;
287;SDS011;128;48.770;9.198;2023-12-29T13:21:20;2.10;;;1.33;;
287;SDS011;128;48.770;9.198;2023-12-29T13:23:46;2.70;;;1.70;;
287;SDS011;128;48.770;9.198;2023-12-29T13:26:12;3.70;;;1.40;;
287;SDS011;128;48.770;9.198;2023-12-29T13:28:39;1.87;;;1.07;;
287;SDS011;128;48.770;9.198;2023-12-29T13:31:05;1.30;;;1.00;;
287;SDS011;128;48.770;9.198;2023-12-29T13:33:34;3.63;;;1.27;;
287;SDS011;128;48.770;9.198;2023-12-29T13:36:09;2.20;;;1.33;;
287;SDS011;128;48.770;9.198;2023-12-29T13:38:40;2.77;;;1.60;;
287;SDS011;128;48.770;9.198;2023-12-29T13:41:09;3.00;;;1.20;;
287;SDS011;128;48.770;9.198;2023-12-29T13:43:37;5.20;;;1.47;;
287;SDS011;128;48.770;9.198;2023-12-29T13:46:07;1.83;;;1.43;;
287;SDS011;128;48.770;9.198;2023-12-29T13:48:33;1.80;;;1.27;;
287;SDS011;128;48.770;9.198;2023-12-29T13:50:59;2.90;;;1.67;;
287;SDS011;128;48.770;9.198;2023-12-29T13:53:25;2.00;;;1.40;;
287;SDS011;128;48.770;9.198;2023-12-29T13:55:51;3.43;;;1.20;;
287;SDS011;128;48.770;9.198;2023-12-29T13:58:17;1.90;;;1.30;;
287;SDS011;128;48.770;9.198;2023-12-29T14:00:43;2.07;;;1.33;;
287;SDS011;128;48.770;9.198;2023-12-29T14:03:10;1.77;;;1.23;;
287;SDS011;128;48.770;9.198;2023-12-29T14:05:52;2.07;;;1.27;;
287;SDS011;128;48.770;9.198;2023-12-29T14:08:27;3.30;;;1.60;;
287;SDS011;128;48.770;9.198;2023-12-29T14:10:58;3.00;;;1.53;;
287;SDS011;128;48.770;9.198;2023-12-29T14:13:23;3.13;;;1.40;;
287;SDS011;128;48.770;9.198;2023-12-29T14:15:49;3.00;;;1.80;;
287;SDS011;128;48.770;9.198;2023-12-29T14:18:59;1.83;;;1.30;;
287;SDS011;128;48.770;9.198;2023-12-29T14:24:21;2.83;;;1.83;;
287;SDS011;128;48.770;9.198;2023-12-29T14:26:41;1.97;;;1.43;;
287;SDS011;128;48.770;9.198;2023-12-29T14:29:09;2.20;;;1.27;;
287;SDS011;128;48.770;9.198;2023-12-29T14:31:37;4.90;;;1.77;;
287;SDS011;128;48.770;9.198;2023-12-29T14:34:03;4.60;;;1.70;;
287;SDS011;128;48.770;9.198;2023-12-29T14:36:33;5.20;;;2.10;;
287;SDS011;128;48.770;9.198;2023-12-29T14:38:59;2.00;;;1.73;;
287;SDS011;128;48.770;9.198;2023-12-29T14:41:25;2.77;;;1.47;;
287;SDS011;128;48.770;9.198;2023-12-29T14:43:52;3.60;;;1.70;;
287;SDS011;128;48.770;9.198;2023-12-29T14:46:18;2.13;;;1.30;;
287;SDS011;128;48.770;9.198;2023-12-29T14:48:44;3.27;;;1.60;;
287;SDS011;128;48.770;9.198;2023-12-29T14:51:10;2.60;;;1.43;;
287;SDS011;128;48.770;9.198;2023-12-29T14:53:36;2.53;;;1.70;;
287;SDS011;128;48.770;9.198;2023-12-29T14:56:02;2.33;;;1.60;;
287;SDS011;128;48.770;9.198;2023-12-29T14:58:28;3.57;;;1.23;;
287;SDS011;128;48.770;9.198;2023-12-29T15:00:54;2.20;;;1.30;;
287;SDS011;128;48.770;9.198;2023-12-29T15:03:20;6.60;;;3.53;;
287;SDS011;128;48.770;9.198;2023-12-29T15:05:46;1.90;;;1.30;;
287;SDS011;128;48.770;9.198;2023-12-29T15:08:12;2.40;;;1.60;;
287;SDS011;128;48.770;9.198;2023-12-29T15:10:38;2.73;;;1.40;;
287;SDS011;128;48.770;9.198;2023-12-29T15:13:04;2.03;;;1.73;;
287;SDS011;128;48.770;9.198;2023-12-29T15:15:32;2.83;;;1.60;;
287;SDS011;128;48.770;9.198;2023-12-29T15:17:58;4.70;;;1.90;;
287;SDS011;128;48.770;9.198;2023-12-29T15:20:24;2.17;;;1.23;;
287;SDS011;128;48.770;9.198;2023-12-29T15:22:50;3.50;;;1.70;;
287;SDS011;128;48.770;9.198;2023-12-29T15:25:20;2.23;;;1.47;;
287;SDS011;128;48.770;9.198;2023-12-29T15:27:47;2.50;;;1.50;;
287;SDS011;128;48.770;9.198;2023-12-29T15:30:13;2.33;;;1.20;;
287;SDS011;128;48.770;9.198;2023-12-29T15:32:39;3.57;;;1.80;;
287;SDS011;128;48.770;9.198;2023-12-29T15:35:05;2.97;;;1.70;;
287;SDS011;128;48.770;9.198;2023-12-29T15:37:32;5.47;;;2.20;;
287;SDS011;128;48.770;9.198;2023-12-29T15:39:58;4.97;;;1.80;;
287;SDS011;128;48.770;9.198;2023-12-29T15:42:28;3.30;;;1.53;;
287;SDS011;128;48.770;9.198;2023-12-29T15:44:54;2.80;;;1.60;;
287;SDS011;128;48.770;9.198;2023-12-29T15:47:20;6.57;;;1.50;;
287;SDS011;128;48.770;9.198;2023-12-29T15:49:46;1.53;;;1.30;;
287;SDS011;128;48.770;9.198;2023-12-29T15:52:12;2.33;;;1.37;;
287;SDS011;128;48.770;9.198;2023-12-29T15:54:38;2.07;;;1.60;;